Terminal Aerodrome Forecast
Issued by NWS

Home | Current Version | Previous Version | Text Only | Print | Product List | Glossary On
Versions: 1 2 3 4 5 6 7 8 9 10 11 12 13 14
000
FTUS44 KOUN 240520
TAFWWR
TAF
KWWR 240520Z 2406/2506 18008KT P6SM SCT250
      TEMPO 2409/2413 4SM BR=

USA.gov is the U.S. government's official web portal to all federal, state and local government web resources and services.